createdAt,value
2022-11-17T00:02:21.517Z,97770.38
2022-11-17T00:07:26.028Z,97764.50
2022-11-17T00:12:46.654Z,97758.69
2022-11-17T00:18:09.721Z,97750.81
2022-11-17T00:23:13.997Z,97754.50
2022-11-17T00:28:16.899Z,97743.09
2022-11-17T00:33:37.605Z,97759.47
2022-11-17T00:38:41.985Z,97752.78
2022-11-17T00:43:44.905Z,97745.38
2022-11-17T00:48:48.319Z,97736.91
2022-11-17T00:53:53.254Z,97742.31
2022-11-17T00:58:56.791Z,97743.47
2022-11-17T01:04:04.109Z,97751.75
2022-11-17T01:09:14.167Z,97741.78
2022-11-17T01:14:19.959Z,97744.72
2022-11-17T01:19:24.598Z,97743.34
2022-11-17T01:24:29.131Z,97734.72
2022-11-17T01:29:32.266Z,97727.50
2022-11-17T01:34:35.199Z,97719.13
2022-11-17T01:39:39.592Z,97738.38
2022-11-17T01:44:54.776Z,97737.78
2022-11-17T01:50:02.642Z,97720.81
2022-11-17T01:55:08.510Z,97721.59
2022-11-17T02:00:13.409Z,97722.41
2022-11-17T02:05:31.407Z,97710.25
2022-11-17T02:10:37.245Z,97709.47
2022-11-17T02:15:40.462Z,97702.88
2022-11-17T02:20:52.631Z,97695.69
2022-11-17T02:26:21.301Z,97693.28
2022-11-17T02:31:37.225Z,97690.28
2022-11-17T02:36:47.386Z,97689.06
2022-11-17T02:41:57.365Z,97702.28
2022-11-17T02:47:05.495Z,97686.09
2022-11-17T02:52:10.574Z,97696.09
2022-11-17T02:57:28.721Z,97698.91
2022-11-17T03:02:50.868Z,97687.75
2022-11-17T03:08:07.545Z,97673.78
2022-11-17T03:13:17.239Z,97680.19
2022-11-17T03:18:28.389Z,97683.75
2022-11-17T03:23:38.281Z,97672.22
2022-11-17T03:28:44.882Z,97674.22
2022-11-17T03:33:50.882Z,97669.19
2022-11-17T03:39:01.424Z,97673.41
2022-11-17T03:44:06.292Z,97677.00
2022-11-17T03:49:21.938Z,97677.78
2022-11-17T03:54:25.211Z,97682.97
2022-11-17T03:59:35.005Z,97663.25
2022-11-17T04:04:53.176Z,97662.25
2022-11-17T04:09:56.108Z,97663.81
2022-11-17T04:15:16.687Z,97656.47
2022-11-17T04:20:21.198Z,97646.50
2022-11-17T04:25:37.965Z,97654.84
2022-11-17T04:30:40.870Z,97656.47
2022-11-17T04:35:50.784Z,97653.47
2022-11-17T04:41:11.483Z,97650.09
2022-11-17T04:46:14.445Z,97639.88
2022-11-17T04:51:18.833Z,97649.88
2022-11-17T04:56:23.361Z,97641.09
2022-11-17T05:01:27.673Z,97653.09
2022-11-17T05:06:34.507Z,97632.53
2022-11-17T05:11:55.079Z,97621.34
2022-11-17T05:17:10.088Z,97617.59
2022-11-17T05:22:34.828Z,97610.81
2022-11-17T05:27:38.249Z,97612.81
2022-11-17T05:32:41.177Z,97614.78
2022-11-17T05:37:45.494Z,97614.19
2022-11-17T05:42:51.749Z,97602.44
2022-11-17T05:47:57.265Z,97614.38
2022-11-17T05:53:01.555Z,97622.75
2022-11-17T05:58:10.194Z,97612.59
2022-11-17T06:03:17.629Z,97615.59
2022-11-17T06:08:22.149Z,97613.78
2022-11-17T06:13:28.948Z,97617.94
2022-11-17T06:18:37.220Z,97621.53
2022-11-17T06:23:41.618Z,97600.63
2022-11-17T06:28:47.667Z,97618.38
2022-11-17T06:33:50.829Z,97609.97
2022-11-17T06:38:55.173Z,97597.00
2022-11-17T06:43:58.076Z,97608.00
2022-11-17T06:49:00.981Z,97596.59
2022-11-17T06:54:07.392Z,97595.19
2022-11-17T06:59:10.962Z,97589.44
2022-11-17T07:04:14.078Z,97587.22
2022-11-17T07:09:18.383Z,97593.41
2022-11-17T07:14:21.265Z,97602.38
2022-11-17T07:19:24.128Z,97597.38
2022-11-17T07:24:28.405Z,97596.59
2022-11-17T07:29:31.322Z,97587.63
2022-11-17T07:34:34.269Z,97581.44
2022-11-17T07:39:38.560Z,97583.78
2022-11-17T07:44:41.443Z,97588.81
2022-11-17T07:49:44.354Z,97588.75
2022-11-17T07:54:48.648Z,97590.38
2022-11-17T07:59:51.509Z,97590.13
2022-11-17T08:04:54.386Z,97592.31
2022-11-17T08:09:58.604Z,97589.91
2022-11-17T08:15:01.649Z,97582.34
2022-11-17T08:20:05.634Z,97575.50
2022-11-17T08:25:10.748Z,97583.59
2022-11-17T08:30:14.479Z,97585.00
2022-11-17T08:35:17.591Z,97586.50
2022-11-17T08:40:22.315Z,97555.69
2022-11-17T08:45:25.234Z,97568.72
2022-11-17T08:50:28.616Z,97571.19
2022-11-17T08:55:36.812Z,97584.75
2022-11-17T09:00:45.314Z,97588.47
2022-11-17T09:05:48.404Z,97601.03
2022-11-17T09:10:52.683Z,97598.88
2022-11-17T09:15:55.884Z,97586.75
2022-11-17T09:21:01.635Z,97592.31
2022-11-17T09:26:08.289Z,97582.13
2022-11-17T09:31:13.102Z,97571.22
2022-11-17T09:36:17.651Z,97585.88
2022-11-17T09:41:27.316Z,97595.28
2022-11-17T09:46:42.272Z,97583.50
2022-11-17T09:51:48.336Z,97589.88
2022-11-17T09:56:52.774Z,97585.16
2022-11-17T10:01:55.841Z,97587.78
2022-11-17T10:06:59.673Z,97571.78
2022-11-17T10:12:17.277Z,97568.97
2022-11-17T10:17:20.129Z,97555.44
2022-11-17T10:22:35.028Z,97562.47
2022-11-17T10:27:50.483Z,97551.31
2022-11-17T10:32:55.277Z,97536.59
2022-11-17T10:38:00.561Z,97515.47
2022-11-17T10:43:19.507Z,97523.81
2022-11-17T10:48:28.717Z,97521.22
2022-11-17T10:53:43.442Z,97516.88
2022-11-17T10:59:03.126Z,97517.16
2022-11-17T11:04:08.829Z,97522.34
2022-11-17T11:09:17.890Z,97517.78
2022-11-17T11:14:32.689Z,97529.59
2022-11-17T11:19:35.886Z,97518.59
2022-11-17T11:24:46.199Z,97511.59
2022-11-17T11:30:01.597Z,97520.25
2022-11-17T11:35:42.755Z,97502.06
2022-11-17T11:40:59.937Z,97486.22
2022-11-17T11:46:14.911Z,97482.16
2022-11-17T11:51:22.410Z,97491.09
2022-11-17T11:56:32.980Z,97487.47
2022-11-17T12:01:47.318Z,97488.13
2022-11-17T12:06:57.167Z,97482.22
2022-11-17T12:12:01.598Z,97470.31
2022-11-17T12:17:08.775Z,97476.09
2022-11-17T12:22:15.163Z,97477.88
2022-11-17T12:27:43.951Z,97464.78
2022-11-17T12:32:55.444Z,97464.72
2022-11-17T12:38:35.527Z,97473.44
2022-11-17T12:43:38.385Z,97462.31
2022-11-17T12:48:51.493Z,97451.00
2022-11-17T12:54:04.570Z,97454.78
2022-11-17T12:59:26.138Z,97450.75
2022-11-17T13:04:37.699Z,97443.50
2022-11-17T13:09:40.586Z,97450.00
2022-11-17T13:14:54.290Z,97453.59
2022-11-17T13:20:06.485Z,97457.91
2022-11-17T13:25:23.223Z,97459.38
2022-11-17T13:30:28.705Z,97458.25
2022-11-17T13:35:35.014Z,97453.41
2022-11-17T13:40:39.248Z,97449.94
2022-11-17T13:45:45.131Z,97439.41
2022-11-17T13:50:49.676Z,97445.19
2022-11-17T13:55:53.668Z,97447.13
2022-11-17T14:00:58.930Z,97438.00
2022-11-17T14:06:04.987Z,97440.06
2022-11-17T14:11:22.330Z,97449.81
2022-11-17T14:16:28.470Z,97441.66
2022-11-17T14:21:34.133Z,97436.31
2022-11-17T14:26:42.885Z,97437.56
2022-11-17T14:31:45.881Z,97439.19
2022-11-17T14:36:53.640Z,97434.53
2022-11-17T14:41:57.906Z,97434.69
2022-11-17T14:47:00.807Z,97428.22
2022-11-17T14:52:05.400Z,97435.94
2022-11-17T14:57:08.330Z,97433.13
2022-11-17T15:02:12.139Z,97433.56
2022-11-17T15:07:16.478Z,97440.91
2022-11-17T15:12:19.400Z,97438.31
2022-11-17T15:17:22.346Z,97448.22
2022-11-17T15:22:26.550Z,97444.91
2022-11-17T15:27:29.431Z,97445.84
2022-11-17T15:32:32.326Z,97449.22
2022-11-17T15:37:36.614Z,97457.75
2022-11-17T15:42:39.508Z,97458.31
2022-11-17T15:47:42.539Z,97452.75
2022-11-17T15:53:03.397Z,97441.78
2022-11-17T15:58:07.340Z,97431.25
2022-11-17T16:03:10.221Z,97435.28
2022-11-17T16:08:14.474Z,97442.28
2022-11-17T16:13:17.380Z,97446.41
2022-11-17T16:18:20.543Z,97450.16
2022-11-17T16:23:24.795Z,97443.31
2022-11-17T16:28:27.686Z,97438.31
2022-11-17T16:33:30.584Z,97436.69
2022-11-17T16:38:35.237Z,97436.69
2022-11-17T16:43:44.340Z,97420.34
2022-11-17T16:48:49.022Z,97419.69
2022-11-17T16:53:58.691Z,97419.03
2022-11-17T16:59:01.742Z,97415.16
2022-11-17T17:04:06.857Z,97422.88
2022-11-17T17:09:12.825Z,97418.31
2022-11-17T17:14:16.392Z,97416.53
2022-11-17T17:19:19.440Z,97419.94
2022-11-17T17:24:23.959Z,97418.56
2022-11-17T17:29:26.864Z,97425.75
2022-11-17T17:34:29.830Z,97430.41
2022-11-17T17:39:34.435Z,97439.34
2022-11-17T17:44:37.389Z,97427.56
2022-11-17T17:49:40.392Z,97427.00
2022-11-17T17:54:44.893Z,97426.84
2022-11-17T17:59:47.841Z,97427.19
2022-11-17T18:04:50.748Z,97428.06
2022-11-17T18:09:55.281Z,97434.56
2022-11-17T18:14:59.205Z,97431.75
2022-11-17T18:20:02.584Z,97431.63
2022-11-17T18:25:10.561Z,97419.69
2022-11-17T18:30:15.703Z,97431.97
2022-11-17T18:35:18.818Z,97429.31
2022-11-17T18:40:23.335Z,97423.47
2022-11-17T18:45:26.562Z,97415.34
2022-11-17T18:50:29.444Z,97413.00
2022-11-17T18:55:33.711Z,97408.59
2022-11-17T19:00:36.770Z,97404.19
2022-11-17T19:05:40.054Z,97412.63
2022-11-17T19:10:52.655Z,97429.38
2022-11-17T19:16:05.990Z,97418.31
2022-11-17T19:21:10.573Z,97415.34
2022-11-17T19:26:16.536Z,97422.53
2022-11-17T19:31:20.945Z,97431.97
2022-11-17T19:36:25.643Z,97426.84
2022-11-17T19:41:31.986Z,97430.59
2022-11-17T19:46:36.589Z,97424.13
2022-11-17T19:51:39.868Z,97438.13
2022-11-17T19:56:44.177Z,97438.03
2022-11-17T20:01:47.134Z,97429.09
2022-11-17T20:06:50.313Z,97435.13
2022-11-17T20:11:54.553Z,97439.91
2022-11-17T20:16:57.476Z,97435.41
2022-11-17T20:22:00.371Z,97441.94
2022-11-17T20:27:04.698Z,97432.84
2022-11-17T20:32:07.545Z,97439.19
2022-11-17T20:37:10.449Z,97438.75
2022-11-17T20:42:17.386Z,97430.44
2022-11-17T20:47:20.277Z,97428.94
2022-11-17T20:52:23.343Z,97420.72
2022-11-17T20:57:27.646Z,97433.13
2022-11-17T21:02:30.515Z,97421.28
2022-11-17T21:07:33.538Z,97426.63
2022-11-17T21:12:37.852Z,97431.09
2022-11-17T21:17:58.385Z,97433.47
2022-11-17T21:23:01.330Z,97452.19
2022-11-17T21:28:05.863Z,97449.13
2022-11-17T21:33:08.826Z,97440.16
2022-11-17T21:38:11.804Z,97436.06
2022-11-17T21:43:16.061Z,97430.66
2022-11-17T21:48:18.970Z,97422.88
2022-11-17T21:53:21.986Z,97422.66
2022-11-17T21:58:26.260Z,97442.66
2022-11-17T22:03:29.215Z,97439.47
2022-11-17T22:08:32.090Z,97449.44
2022-11-17T22:13:37.797Z,97452.47
2022-11-17T22:18:41.464Z,97458.69
2022-11-17T22:23:44.339Z,97463.59
2022-11-17T22:28:51.512Z,97459.09
2022-11-17T22:33:54.464Z,97462.78
2022-11-17T22:38:57.375Z,97446.69
2022-11-17T22:44:01.619Z,97456.81
2022-11-17T22:49:04.562Z,97456.59
2022-11-17T22:54:08.547Z,97468.22
2022-11-17T22:59:12.818Z,97467.19
2022-11-17T23:04:16.406Z,97458.38
2022-11-17T23:09:19.408Z,97457.81
2022-11-17T23:14:23.816Z,97445.41
2022-11-17T23:19:26.667Z,97460.06
2022-11-17T23:24:29.532Z,97475.19
2022-11-17T23:29:33.787Z,97472.97
2022-11-17T23:34:36.668Z,97474.69
2022-11-17T23:39:39.674Z,97479.59
2022-11-17T23:44:43.909Z,97483.22
2022-11-17T23:49:46.817Z,97476.84
2022-11-17T23:54:49.660Z,97466.19
2022-11-17T23:59:53.856Z,97487.19
